Главная страница
METAR-TAF:

METAR-TAF

Аэропорты :

Саратов, Россия

Саратов-Центральный

широта: 51-34-12N, долгота: 046-04-12E, высота над уровнем моря: 166 м

Текущие метеонаблюдения

Эта сводка был подготовлена 22 минут назад, в 06:00 UTC
Ветер 6 Узел от восточный
Температура 25°C
Влажность 36%
Давление 1016 hPa
Видимость 10 км и более
Нет облачности ниже 1500 м, и нет кучево-дождевой облачности

METAR: UWSS 230600Z 09003MPS CAVOK 25/09 Q1016 R12/010095 NOSIG RMK QFE750

Время: 09:22 (06:22 UTC)

Прогноз

Эта сводка был подготовлена 1 час и 22 минут назад, в 05:00 UTC
Прогноз действительный с 23-го 06 UTC до 23-го 15 UTC
Ветер 6 Узел от восточно-юго-восточный с порывами до 16 Узел
Видимость 10 км и более
Отдельные облака на высоте 4000 фута
временами
С 23-го 06 UTC до 23-го 15 UTC
Ветер 16 Узел от юго-восточный с порывами до 27 Узел
Отдельные облака на высоте 3000 фута, Кучево-дождевые.

TAF: UWSS 230500Z 2306/2315 12003G08MPS 9999 SCT040 TEMPO 2306/2315 14008G14MPS SCT030CB

Метеонаблюдения и прогнозы для более 4000 аэропортов (сводки METAR и TAF).

Имеющиеся станции представлены на карте желтыми и красными точками.

Чтобы увидеть название станции, наведите на нее мышь.

Затем щелкните, чтобы увидеть метеонаблюдения и метеопрогнозы.

Управление картой: чтобы увеличить масштаб, щелкните зеленые кнопки с черным крестиком; чтобы уменьшить масштаб, щелкните зеленую кнопку с тире; для просмотра соседних карт щелкайте зеленые стрелки.


METAR-TAF: